Caringa — DB4011 — position and weather

sailwx.info

Track history (hours):
 
Tides and Currents Weather Stations Pressure Air Temp Water Temp Dewpoint Dewpoint Depression Visibility Wind Speed Wind Dir Waves Ship Positions

Caringa

Last reported at 2017-Sep-08 06:21 UTC. Time now 2017-Nov-24 12:45 UTC.
Position N 47°30' W 002°23'.
Warning: this ship's position is months out of date.

Length 14 m.

Type: Pleasure craft. MMSI: 211167510.

Date/timePositionNaut miles runAvg speedWind from/ knotsBaromVisibWave heightAir tempDewpointWater temp
2017-Sep-08 06:21N 47°30' W 002°23'0 0.1
2017-Sep-08 05:49N 47°30' W 002°23'0 0.0
2017-Sep-07 17:47N 47°30' W 002°23'2 4.4
2017-Sep-07 17:19N 47°30' W 002°26'2 6.7
2017-Sep-07 17:00N 47°30' W 002°29'3 6.2
2017-Sep-07 16:30N 47°28' W 002°33'4 8.4
2017-Sep-07 16:00N 47°24' W 002°35'4 8.0
2017-Sep-07 15:27N 47°20' W 002°35'22 3.6
2017-Sep-07 09:20N 47°02' W 002°18'0 0.0
2017-Sep-07 08:56N 47°02' W 002°18'0 0.0
2017-Sep-07 08:26N 47°02' W 002°18'0 0.0
2017-Sep-07 07:50N 47°02' W 002°18'  
2017-Sep-04 12:03N 47°01' W 002°18'0 0.0
2017-Sep-04 11:45N 47°01' W 002°18'  
2017-Aug-31 11:01N 46°35' W 002°05'0 6.3
2017-Aug-31 11:00N 46°35' W 002°05'3 6.5
2017-Aug-31 10:29N 46°33' W 002°01'3 6.5
2017-Aug-31 10:00N 46°32' W 001°57'3 6.8
2017-Aug-31 09:30N 46°30' W 001°53'3 5.6
2017-Aug-31 09:00N 46°28' W 001°50'2 3.8
2017-Aug-31 08:29N 46°30' W 001°47'0 0.0
2017-Aug-29 11:39N 46°30' W 001°47'0 0.0
2017-Aug-29 11:30N 46°30' W 001°47'1 3.0
2017-Aug-29 11:00N 46°28' W 001°48'2 4.1
2017-Aug-29 10:30N 46°28' W 001°51'2 3.9
2017-Aug-29 10:00N 46°28' W 001°48'1 2.9
2017-Aug-29 09:30N 46°30' W 001°47'  
Track history (hours):
 
Tides and Currents Weather Stations Pressure Air Temp Water Temp Dewpoint Dewpoint Depression Visibility Wind Speed Wind Dir Waves Ship Positions

Caringa

Last reported at 2017-Sep-08 06:21 UTC. Time now 2017-Nov-24 12:45 UTC.
Position N 47°30' W 002°23'.
Warning: this ship's position is months out of date.

Length 14 m.

Type: Pleasure craft. MMSI: 211167510.

Date/timePositionNaut miles runAvg speedWind from/ knotsBaromVisibWave heightAir tempDewpointWater temp
2017-Sep-08 06:21N 47°30' W 002°23'0 0.1
2017-Sep-08 05:49N 47°30' W 002°23'0 0.0
2017-Sep-07 17:47N 47°30' W 002°23'2 4.4
2017-Sep-07 17:19N 47°30' W 002°26'2 6.7
2017-Sep-07 17:00N 47°30' W 002°29'3 6.2
2017-Sep-07 16:30N 47°28' W 002°33'4 8.4
2017-Sep-07 16:00N 47°24' W 002°35'4 8.0
2017-Sep-07 15:27N 47°20' W 002°35'22 3.6
2017-Sep-07 09:20N 47°02' W 002°18'0 0.0
2017-Sep-07 08:56N 47°02' W 002°18'0 0.0
2017-Sep-07 08:26N 47°02' W 002°18'0 0.0
2017-Sep-07 07:50N 47°02' W 002°18'  
2017-Sep-04 12:03N 47°01' W 002°18'0 0.0
2017-Sep-04 11:45N 47°01' W 002°18'  
2017-Aug-31 11:01N 46°35' W 002°05'0 6.3
2017-Aug-31 11:00N 46°35' W 002°05'3 6.5
2017-Aug-31 10:29N 46°33' W 002°01'3 6.5
2017-Aug-31 10:00N 46°32' W 001°57'3 6.8
2017-Aug-31 09:30N 46°30' W 001°53'3 5.6
2017-Aug-31 09:00N 46°28' W 001°50'2 3.8
2017-Aug-31 08:29N 46°30' W 001°47'0 0.0
2017-Aug-29 11:39N 46°30' W 001°47'0 0.0
2017-Aug-29 11:30N 46°30' W 001°47'1 3.0
2017-Aug-29 11:00N 46°28' W 001°48'2 4.1
2017-Aug-29 10:30N 46°28' W 001°51'2 3.9
2017-Aug-29 10:00N 46°28' W 001°48'1 2.9
2017-Aug-29 09:30N 46°30' W 001°47'  

Dump ship's entire track history